createdAt,value
2017-09-18T16:27:06.386Z,57.70
2017-09-18T16:29:32.559Z,66.10
2017-09-18T16:31:59.499Z,66.70
2017-09-18T16:34:26.748Z,66.70
2017-09-18T16:36:53.084Z,67.80
2017-09-18T16:39:19.165Z,69.30
2017-09-18T16:41:45.255Z,68.80
2017-09-18T16:44:12.070Z,69.70
2017-09-18T16:46:38.119Z,69.60
2017-09-18T16:49:04.250Z,70.40
2017-09-18T16:51:31.160Z,69.70
2017-09-18T16:53:57.346Z,69.60
2017-09-18T16:56:23.499Z,70.20
2017-09-18T16:58:49.747Z,70.00
2017-09-18T17:01:15.792Z,69.80
2017-09-18T17:03:41.857Z,72.90
2017-09-18T17:06:07.905Z,72.20
2017-09-18T17:08:34.241Z,71.20
2017-09-18T17:11:00.294Z,71.80
2017-09-18T17:13:26.370Z,72.50
2017-09-18T17:15:52.473Z,72.90
2017-09-18T17:18:18.596Z,74.40
2017-09-18T17:20:44.689Z,74.30
2017-09-18T17:23:10.794Z,74.50
2017-09-18T17:25:36.885Z,75.70
2017-09-18T17:28:03.702Z,74.40
2017-09-18T17:30:30.588Z,74.80
2017-09-18T17:32:56.777Z,74.20
2017-09-18T17:35:22.901Z,74.40
2017-09-18T17:37:49.017Z,75.10
2017-09-18T17:40:15.214Z,75.80
2017-09-18T17:42:41.280Z,75.40
2017-09-18T17:45:07.403Z,77.20
2017-09-18T17:47:33.497Z,77.60
2017-09-18T17:49:59.569Z,78.50
2017-09-18T17:52:25.653Z,78.20
2017-09-18T17:54:51.697Z,76.80
2017-09-18T17:57:17.762Z,77.30
2017-09-18T17:59:43.827Z,77.70
2017-09-18T18:02:09.891Z,78.00
2017-09-18T18:04:35.986Z,78.70
2017-09-18T18:07:02.169Z,78.60
2017-09-18T18:09:28.250Z,78.00
2017-09-18T18:11:54.307Z,77.70
2017-09-18T18:14:20.338Z,77.30
2017-09-18T18:16:47.656Z,78.40
2017-09-18T18:19:18.166Z,79.30
2017-09-18T18:21:45.259Z,80.00
2017-09-18T18:24:11.630Z,80.00
2017-09-18T18:26:39.631Z,81.30
2017-09-18T18:29:07.969Z,80.10
2017-09-18T18:31:34.127Z,81.10
2017-09-18T18:34:01.132Z,80.70
2017-09-18T18:36:27.496Z,81.10
2017-09-18T18:38:53.630Z,80.70
2017-09-18T18:41:19.903Z,80.50
2017-09-18T18:43:46.702Z,80.90
2017-09-18T18:46:12.801Z,80.80
2017-09-18T18:48:40.546Z,81.80
2017-09-18T18:51:06.852Z,81.80
2017-09-18T18:53:33.583Z,82.20
2017-09-18T18:55:59.699Z,82.60
2017-09-18T18:58:25.832Z,82.90
2017-09-18T19:00:51.869Z,83.20
2017-09-18T19:03:17.934Z,84.10
2017-09-18T19:05:44.009Z,84.60
2017-09-18T19:08:10.337Z,85.80
2017-09-18T19:10:36.465Z,86.40
2017-09-18T19:13:02.522Z,87.40
2017-09-18T19:15:28.681Z,88.20
2017-09-18T19:17:54.794Z,88.90
2017-09-18T19:20:20.897Z,89.50
2017-09-18T19:22:46.958Z,89.80
2017-09-18T19:25:13.793Z,90.80
2017-09-18T19:27:40.658Z,91.00
2017-09-18T19:30:06.777Z,91.00
2017-09-18T19:32:32.835Z,91.10
2017-09-18T19:34:58.871Z,91.80
2017-09-18T19:37:25.655Z,92.30
2017-09-18T19:39:51.712Z,92.20
2017-09-18T19:42:17.826Z,92.60
2017-09-18T19:44:43.954Z,92.90
2017-09-18T19:47:10.013Z,92.60
2017-09-18T19:49:36.154Z,92.70
2017-09-18T19:52:02.238Z,92.70
2017-09-18T19:54:29.049Z,93.80
2017-09-18T19:56:55.090Z,93.80
2017-09-18T19:59:21.130Z,93.90
2017-09-18T20:01:47.181Z,94.00
2017-09-18T20:04:13.247Z,94.00
2017-09-18T20:06:39.309Z,94.20
2017-09-18T20:09:06.157Z,94.50
2017-09-18T20:11:32.965Z,94.50
2017-09-18T20:13:59.052Z,94.50
2017-09-18T20:16:25.113Z,94.60
2017-09-18T20:18:51.195Z,94.40
2017-09-18T20:21:17.369Z,94.50
2017-09-18T20:23:43.455Z,94.40
2017-09-18T20:26:09.573Z,94.00
2017-09-18T20:28:35.639Z,93.90
2017-09-18T20:31:02.501Z,93.60
2017-09-18T20:33:28.573Z,93.60
2017-09-18T20:35:55.402Z,94.00
2017-09-18T20:38:21.484Z,94.00
2017-09-18T20:40:47.642Z,94.10
2017-09-18T20:43:13.718Z,94.00
2017-09-18T20:45:39.762Z,94.00
2017-09-18T20:48:05.822Z,94.10
2017-09-18T20:50:31.990Z,94.00
2017-09-18T20:52:58.103Z,94.00
2017-09-18T20:55:24.154Z,94.20
2017-09-18T20:57:50.218Z,94.10
2017-09-18T21:00:16.286Z,94.40
2017-09-18T21:02:42.367Z,94.30
2017-09-18T21:05:09.167Z,94.50
2017-09-18T21:07:35.229Z,94.50
2017-09-18T21:10:01.298Z,94.80
2017-09-18T21:12:27.376Z,94.70
2017-09-18T21:14:53.447Z,94.70
2017-09-18T21:17:19.509Z,94.90
2017-09-18T21:19:45.606Z,95.00
2017-09-18T21:22:11.686Z,94.90
2017-09-18T21:24:38.469Z,94.80
2017-09-18T21:27:05.985Z,94.80
2017-09-18T21:29:32.138Z,94.60
2017-09-18T21:31:58.180Z,94.50
2017-09-18T21:34:25.037Z,94.40
2017-09-18T21:36:51.306Z,94.30
2017-09-18T21:39:17.607Z,94.50
2017-09-18T21:41:43.892Z,94.30
2017-09-18T21:44:10.122Z,94.30
2017-09-18T21:46:36.232Z,94.30
2017-09-18T21:49:02.277Z,94.40
2017-09-18T21:51:28.344Z,94.40
2017-09-18T21:53:54.392Z,94.60
2017-09-18T21:56:21.196Z,94.80
2017-09-18T21:58:47.236Z,94.80
2017-09-18T22:01:13.304Z,94.70
2017-09-18T22:03:39.350Z,94.70
2017-09-18T22:06:06.129Z,95.00
2017-09-18T22:08:32.917Z,95.00
2017-09-18T22:10:58.984Z,95.00
2017-09-18T22:13:25.031Z,95.30
2017-09-18T22:15:51.116Z,94.90
2017-09-18T22:18:17.146Z,94.90
2017-09-18T22:20:43.218Z,94.60
2017-09-18T22:23:10.008Z,92.80
2017-09-18T22:25:36.060Z,92.80
2017-09-18T22:28:02.108Z,92.50
2017-09-18T22:30:28.149Z,92.60
2017-09-18T22:32:54.205Z,92.20
2017-09-18T22:35:20.994Z,92.40
2017-09-18T22:37:47.048Z,92.40
2017-09-18T22:40:13.097Z,92.80
2017-09-18T22:42:39.133Z,92.80
2017-09-18T22:45:05.187Z,92.70
2017-09-18T22:47:31.234Z,92.70
2017-09-18T22:49:57.287Z,92.80
2017-09-18T22:52:23.326Z,93.00
2017-09-18T22:54:49.613Z,93.50
2017-09-18T22:57:15.657Z,92.80
2017-09-18T22:59:41.692Z,92.80
2017-09-18T23:02:07.754Z,93.00
2017-09-18T23:04:33.797Z,93.20
2017-09-18T23:06:59.857Z,93.10
2017-09-18T23:09:25.908Z,93.70
2017-09-18T23:11:51.937Z,93.70
2017-09-18T23:14:18.001Z,93.50
2017-09-18T23:16:44.048Z,93.50
2017-09-18T23:19:10.188Z,93.30
2017-09-18T23:21:36.977Z,93.60
2017-09-18T23:24:03.026Z,93.60
2017-09-18T23:26:29.820Z,93.50
2017-09-18T23:28:55.846Z,93.50
2017-09-18T23:31:22.683Z,93.30
2017-09-18T23:33:49.490Z,93.10
2017-09-18T23:36:15.534Z,93.10
2017-09-18T23:38:41.581Z,93.10
2017-09-18T23:41:07.670Z,93.20
2017-09-18T23:43:33.760Z,93.20
2017-09-18T23:45:59.817Z,93.40
2017-09-18T23:48:25.878Z,93.50
2017-09-18T23:50:51.934Z,93.50
2017-09-18T23:53:17.982Z,94.00
2017-09-18T23:55:44.773Z,94.00
2017-09-18T23:58:10.841Z,94.00
